Time;durP1;ratioP1;P1;durP2;ratioP2;P2;SDS_P1;SDS_P2;PMS_P1;PMS_P2;Temp;Humidity;BMP_temperature;BMP_pressure;BME280_temperature;BME280_humidity;BME280_pressure;Samples;Min_cycle;Max_cycle;Signal;HPM_P1;HPM_P2
2022/10/30 00:01:01;;;;;;;;;;;11.90;99.90;;;;;;6152529;23;19921;-81
2022/10/30 00:03:28;;;;;;;;;;;11.80;99.90;;;;;;6153112;23;19927;-81
2022/10/30 00:05:55;;;;;;;;;;;11.80;99.90;;;;;;6152369;23;19962;-81
2022/10/30 00:08:24;;;;;;;;;;;11.80;99.90;;;;;;6153451;23;19920;-81
2022/10/30 00:10:51;;;;;;;;;;;11.80;99.90;;;;;;6152291;23;20234;-81
2022/10/30 00:13:18;;;;;;;;;;;11.80;99.90;;;;;;6153371;23;20249;-81
2022/10/30 00:15:52;;;;;;;;;;;11.80;99.90;;;;;;6152899;23;19921;-81
2022/10/30 00:18:19;;;;;;;;;;;11.90;99.90;;;;;;6152516;23;19924;-81
2022/10/30 00:20:46;;;;;;;;;;;11.90;99.90;;;;;;6153404;23;19964;-81
2022/10/30 00:23:13;;;;;;;;;;;11.90;99.90;;;;;;6151839;23;19968;-81
2022/10/30 00:25:40;;;;;;;;;;;11.90;99.90;;;;;;6153094;23;19931;-81
2022/10/30 00:28:07;;;;;;;;;;;11.90;99.90;;;;;;6151717;23;19963;-81
2022/10/30 00:30:34;;;;;;;;;;;11.80;99.90;;;;;;6153055;23;19959;-81
2022/10/30 00:33:01;;;;;;;;;;;11.80;99.90;;;;;;6152245;23;20003;-81
2022/10/30 00:35:28;;;;;;;;;;;11.70;99.90;;;;;;6153165;23;20283;-81
2022/10/30 00:37:55;;;;;;;;;;;11.50;99.90;;;;;;6152423;23;19927;-81
2022/10/30 00:40:23;;;;;;;;;;;11.60;99.90;;;;;;6156217;23;19927;-81
2022/10/30 00:42:49;;;;;;;;;;;11.60;99.90;;;;;;6154997;23;19920;-81
2022/10/30 00:45:16;;;;;;;;;;;11.60;99.90;;;;;;6154173;23;20234;-81
2022/10/30 00:48:02;;;;;;;;;;;11.60;99.90;;;;;;6154584;23;19996;-80
2022/10/30 00:50:31;;;;;;;;;;;11.60;99.90;;;;;;6154071;23;20334;-80
2022/10/30 00:53:00;;;;;;;;;;;11.50;99.90;;;;;;6154756;23;19925;-81
2022/10/30 00:55:38;;;;;;;;;;;11.60;99.90;;;;;;6154853;23;19975;-81
2022/10/30 00:58:08;;;;;;;;;;;11.50;99.90;;;;;;6155510;23;20007;-80
2022/10/30 01:00:35;;;;;;;;;;;11.50;99.90;;;;;;6154297;23;20298;-81
2022/10/30 01:03:02;;;;;;;;;;;11.40;99.90;;;;;;6154720;23;19921;-81
2022/10/30 01:05:30;;;;;;;;;;;11.40;99.90;;;;;;6154071;23;19991;-81
2022/10/30 01:07:57;;;;;;;;;;;11.40;99.90;;;;;;6154582;23;19963;-81
2022/10/30 01:10:24;;;;;;;;;;;11.30;99.90;;;;;;6153408;23;19927;-81
2022/10/30 01:12:52;;;;;;;;;;;11.30;99.90;;;;;;6154666;23;19995;-81
2022/10/30 01:15:23;;;;;;;;;;;11.30;99.90;;;;;;6153872;23;19920;-81
2022/10/30 01:18:16;;;;;;;;;;;11.30;99.90;;;;;;6154673;23;20012;-81
2022/10/30 01:21:01;;;;;;;;;;;11.30;99.90;;;;;;6119262;23;19940;-81
2022/10/30 01:23:46;;;;;;;;;;;11.30;99.90;;;;;;6154007;23;19930;-81
2022/10/30 01:26:25;;;;;;;;;;;11.20;99.90;;;;;;6154050;23;20253;-81
2022/10/30 01:29:06;;;;;;;;;;;11.20;99.90;;;;;;6141635;23;19921;-81
2022/10/30 01:31:39;;;;;;;;;;;11.20;99.90;;;;;;6153913;23;20332;-81
2022/10/30 01:34:22;;;;;;;;;;;11.10;99.90;;;;;;6154057;23;19946;-81
2022/10/30 01:37:07;;;;;;;;;;;11.20;99.90;;;;;;6153765;23;20348;-81
2022/10/30 01:39:36;;;;;;;;;;;11.20;99.90;;;;;;6153359;23;19960;-81
2022/10/30 01:42:08;;;;;;;;;;;11.20;99.90;;;;;;6154325;23;19944;-80
2022/10/30 01:44:36;;;;;;;;;;;11.20;99.90;;;;;;6153435;23;20269;-81
2022/10/30 01:47:06;;;;;;;;;;;11.20;99.90;;;;;;6155992;23;19920;-81
2022/10/30 01:50:07;;;;;;;;;;;11.20;99.90;;;;;;6153864;23;19970;-81
2022/10/30 01:52:38;;;;;;;;;;;11.20;99.90;;;;;;6069742;23;19997;-81
2022/10/30 01:55:23;;;;;;;;;;;11.20;99.90;;;;;;6133851;23;19925;-82
2022/10/30 01:58:04;;;;;;;;;;;11.20;99.90;;;;;;6152985;23;20328;-83
2022/10/30 02:00:31;;;;;;;;;;;11.20;99.90;;;;;;6153327;23;19925;-82
2022/10/30 02:02:58;;;;;;;;;;;11.20;99.90;;;;;;6154026;23;19921;-82
2022/10/30 02:05:46;;;;;;;;;;;11.10;99.90;;;;;;6153732;23;20004;-81
2022/10/30 02:08:13;;;;;;;;;;;11.20;99.90;;;;;;6153936;23;19948;-81
2022/10/30 02:10:41;;;;;;;;;;;11.20;99.90;;;;;;6153758;23;19931;-82
2022/10/30 02:13:07;;;;;;;;;;;11.30;99.90;;;;;;6153036;23;19924;-82
2022/10/30 02:15:34;;;;;;;;;;;11.30;99.90;;;;;;6154111;23;20356;-82
2022/10/30 02:18:01;;;;;;;;;;;11.30;99.90;;;;;;6153030;23;19991;-82
2022/10/30 02:20:28;;;;;;;;;;;11.20;99.90;;;;;;6154178;23;19921;-82
2022/10/30 02:22:55;;;;;;;;;;;11.20;99.90;;;;;;6154747;23;20405;-82
2022/10/30 02:25:25;;;;;;;;;;;11.20;99.90;;;;;;6154223;23;19952;-83
2022/10/30 02:27:52;;;;;;;;;;;11.20;99.90;;;;;;6153115;23;19973;-81
2022/10/30 02:30:19;;;;;;;;;;;11.10;99.90;;;;;;6153972;23;19951;-82
2022/10/30 02:32:45;;;;;;;;;;;11.00;99.90;;;;;;6153592;23;19991;-82
2022/10/30 02:35:12;;;;;;;;;;;11.00;99.90;;;;;;6153096;23;20350;-82
2022/10/30 02:37:39;;;;;;;;;;;10.90;99.90;;;;;;6153739;23;19924;-82
2022/10/30 02:40:09;;;;;;;;;;;10.80;99.90;;;;;;6153300;23;20353;-82
2022/10/30 02:42:36;;;;;;;;;;;10.70;99.90;;;;;;6153738;23;20360;-82
2022/10/30 02:45:02;;;;;;;;;;;10.70;99.90;;;;;;6153341;23;19959;-81
2022/10/30 02:47:29;;;;;;;;;;;10.80;99.90;;;;;;6153640;23;19921;-82
2022/10/30 02:49:56;;;;;;;;;;;10.80;99.90;;;;;;6153016;23;20376;-81
2022/10/30 02:52:22;;;;;;;;;;;10.80;99.90;;;;;;6153759;23;19995;-81
2022/10/30 02:54:49;;;;;;;;;;;10.90;99.90;;;;;;6154009;23;19996;-82
2022/10/30 02:57:16;;;;;;;;;;;10.90;99.90;;;;;;6140909;23;19927;-82
2022/10/30 02:59:42;;;;;;;;;;;10.80;99.90;;;;;;6153897;23;20333;-82
2022/10/30 03:02:09;;;;;;;;;;;10.80;99.90;;;;;;6153864;23;19989;-82
2022/10/30 03:04:36;;;;;;;;;;;10.80;99.90;;;;;;6153282;23;19986;-82
2022/10/30 03:07:03;;;;;;;;;;;10.80;99.90;;;;;;6152801;23;19921;-81
2022/10/30 03:09:29;;;;;;;;;;;10.90;99.90;;;;;;6153683;23;19993;-82
2022/10/30 03:11:56;;;;;;;;;;;10.90;99.90;;;;;;6152778;23;19925;-82
2022/10/30 03:14:23;;;;;;;;;;;11.00;99.90;;;;;;6153851;23;20278;-82
2022/10/30 03:16:51;;;;;;;;;;;11.00;99.90;;;;;;6152564;23;20250;-83
2022/10/30 03:19:18;;;;;;;;;;;10.90;99.90;;;;;;6152793;23;19921;-82
2022/10/30 03:21:45;;;;;;;;;;;10.70;99.90;;;;;;6153524;23;19968;-81
2022/10/30 03:24:12;;;;;;;;;;;10.70;99.90;;;;;;6152855;23;19925;-82
2022/10/30 03:26:39;;;;;;;;;;;10.70;99.90;;;;;;6153270;23;19921;-82
2022/10/30 03:29:05;;;;;;;;;;;10.70;99.90;;;;;;6152957;23;19999;-81
2022/10/30 03:31:32;;;;;;;;;;;10.80;99.90;;;;;;6155151;23;19921;-79
2022/10/30 03:33:59;;;;;;;;;;;11.00;99.90;;;;;;6152210;23;19948;-78
2022/10/30 03:36:25;;;;;;;;;;;11.20;99.90;;;;;;6152968;23;20345;-78
2022/10/30 03:38:52;;;;;;;;;;;11.20;99.90;;;;;;6153033;23;19999;-78
2022/10/30 03:41:19;;;;;;;;;;;10.90;99.90;;;;;;6154315;23;19955;-78
2022/10/30 03:43:46;;;;;;;;;;;10.90;99.90;;;;;;6152852;23;19959;-79
2022/10/30 03:46:12;;;;;;;;;;;10.80;99.90;;;;;;6152569;23;19996;-78
2022/10/30 03:48:39;;;;;;;;;;;10.80;99.90;;;;;;6155025;23;19973;-78
2022/10/30 03:51:06;;;;;;;;;;;10.90;99.90;;;;;;6152784;23;20256;-78
2022/10/30 03:53:32;;;;;;;;;;;10.90;99.90;;;;;;6153207;23;20000;-78
2022/10/30 03:56:00;;;;;;;;;;;10.90;99.90;;;;;;6152393;23;19927;-79
2022/10/30 03:58:27;;;;;;;;;;;10.90;99.90;;;;;;6153148;23;19952;-78
2022/10/30 04:00:54;;;;;;;;;;;10.80;99.90;;;;;;6154392;23;19920;-78
2022/10/30 04:03:21;;;;;;;;;;;10.80;99.90;;;;;;6152637;23;19995;-78
2022/10/30 04:05:49;;;;;;;;;;;10.70;99.90;;;;;;6153486;23;19925;-78
2022/10/30 04:08:17;;;;;;;;;;;10.70;99.90;;;;;;6152414;23;20918;-78
2022/10/30 04:10:44;;;;;;;;;;;10.70;99.90;;;;;;6152935;23;19952;-78
2022/10/30 04:13:11;;;;;;;;;;;10.70;99.90;;;;;;6153648;23;19924;-78
2022/10/30 04:15:38;;;;;;;;;;;10.60;99.90;;;;;;6154945;23;19927;-78
2022/10/30 04:18:05;;;;;;;;;;;10.50;99.90;;;;;;6153874;23;19927;-78
2022/10/30 04:20:32;;;;;;;;;;;10.50;99.90;;;;;;6155231;23;19921;-78
2022/10/30 04:23:03;;;;;;;;;;;10.40;99.90;;;;;;6153674;23;20341;-79
2022/10/30 04:25:30;;;;;;;;;;;10.40;99.90;;;;;;6154865;23;20322;-78
2022/10/30 04:27:57;;;;;;;;;;;10.30;99.90;;;;;;6154890;23;19928;-79
2022/10/30 04:30:26;;;;;;;;;;;10.40;99.90;;;;;;6154097;23;19920;-78
2022/10/30 04:32:53;;;;;;;;;;;10.40;99.90;;;;;;6154892;23;20011;-79
2022/10/30 04:35:21;;;;;;;;;;;10.40;99.90;;;;;;6153979;23;19924;-79
2022/10/30 04:37:55;;;;;;;;;;;10.40;99.90;;;;;;6154755;23;19988;-80
2022/10/30 04:40:23;;;;;;;;;;;10.90;99.90;;;;;;6154079;23;19921;-78
2022/10/30 04:42:50;;;;;;;;;;;11.20;99.90;;;;;;6154824;23;20315;-78
2022/10/30 04:45:16;;;;;;;;;;;11.30;99.90;;;;;;6153811;23;19948;-78
2022/10/30 04:47:43;;;;;;;;;;;11.20;99.90;;;;;;6155196;23;19921;-79
2022/10/30 04:50:10;;;;;;;;;;;11.20;99.90;;;;;;6155507;23;20000;-79
2022/10/30 04:52:37;;;;;;;;;;;11.20;99.90;;;;;;6155093;23;19925;-79
2022/10/30 04:55:04;;;;;;;;;;;11.20;99.90;;;;;;6153888;23;19920;-78
2022/10/30 04:57:31;;;;;;;;;;;11.20;99.90;;;;;;6154589;23;19992;-78
2022/10/30 04:59:58;;;;;;;;;;;11.20;99.90;;;;;;6154950;23;19987;-78
2022/10/30 05:02:24;;;;;;;;;;;11.30;99.90;;;;;;6153919;23;20365;-78
2022/10/30 05:04:51;;;;;;;;;;;11.50;99.90;;;;;;6154751;23;19935;-78
2022/10/30 05:07:19;;;;;;;;;;;11.60;99.90;;;;;;6153982;23;19952;-78
2022/10/30 05:09:45;;;;;;;;;;;11.90;99.20;;;;;;6154352;23;20327;-78
2022/10/30 05:12:12;;;;;;;;;;;12.30;95.90;;;;;;6153646;23;20306;-78
2022/10/30 05:14:39;;;;;;;;;;;12.60;94.80;;;;;;6155197;23;19921;-79
2022/10/30 05:17:05;;;;;;;;;;;12.80;93.50;;;;;;6153969;23;19995;-79
2022/10/30 05:19:32;;;;;;;;;;;12.90;93.10;;;;;;6154778;23;20333;-78
2022/10/30 05:21:59;;;;;;;;;;;13.00;93.20;;;;;;6154435;23;20000;-79
2022/10/30 05:24:25;;;;;;;;;;;12.90;94.90;;;;;;6153224;23;20000;-79
2022/10/30 05:26:52;;;;;;;;;;;12.80;95.80;;;;;;6154268;23;20292;-78
2022/10/30 05:29:19;;;;;;;;;;;12.60;97.00;;;;;;6153746;23;19927;-79
2022/10/30 05:31:46;;;;;;;;;;;12.40;99.40;;;;;;6154494;23;19957;-78
2022/10/30 05:34:12;;;;;;;;;;;12.20;99.90;;;;;;6153676;23;20035;-79
2022/10/30 05:36:39;;;;;;;;;;;12.20;98.50;;;;;;6154087;23;19921;-78
2022/10/30 05:39:06;;;;;;;;;;;12.20;99.70;;;;;;6153721;23;20234;-78
2022/10/30 05:41:32;;;;;;;;;;;12.20;98.40;;;;;;6154429;23;19920;-78
2022/10/30 05:43:59;;;;;;;;;;;12.20;99.50;;;;;;6153938;23;19995;-78
2022/10/30 05:46:26;;;;;;;;;;;11.90;99.90;;;;;;6153617;23;19987;-78
2022/10/30 05:48:52;;;;;;;;;;;11.80;99.90;;;;;;6154204;23;20328;-78
2022/10/30 05:51:19;;;;;;;;;;;11.70;99.90;;;;;;6153257;23;20300;-79
2022/10/30 05:53:49;;;;;;;;;;;11.60;99.90;;;;;;6153930;23;19944;-78
2022/10/30 05:56:15;;;;;;;;;;;11.40;99.90;;;;;;6153464;23;20345;-78
2022/10/30 05:58:42;;;;;;;;;;;11.30;99.90;;;;;;6154006;23;20413;-78
2022/10/30 06:01:18;;;;;;;;;;;11.30;99.90;;;;;;6153277;23;19924;-78
2022/10/30 06:04:13;;;;;;;;;;;11.40;99.90;;;;;;6152205;23;19983;-79
2022/10/30 06:07:23;;;;;;;;;;;11.50;99.90;;;;;;6155823;23;19923;-78
2022/10/30 06:10:04;;;;;;;;;;;11.70;99.80;;;;;;6107801;23;19924;-78
2022/10/30 06:12:33;;;;;;;;;;;11.70;99.40;;;;;;6168808;23;19951;-79
2022/10/30 06:15:17;;;;;;;;;;;11.70;99.50;;;;;;6153177;23;19999;-78
2022/10/30 06:18:15;;;;;;;;;;;;;;;;;;;;;
2022/10/30 06:20:51;;;;;;;;;;;11.50;99.90;;;;;;6159209;23;19976;-78
2022/10/30 06:23:22;;;;;;;;;;;11.30;99.90;;;;;;6155415;23;19991;-78
2022/10/30 06:25:55;;;;;;;;;;;11.30;99.90;;;;;;6104543;23;19933;-79
2022/10/30 06:28:27;;;;;;;;;;;11.20;99.90;;;;;;6151103;23;19925;-78
2022/10/30 06:31:01;;;;;;;;;;;11.10;99.90;;;;;;6140397;23;19991;-78
2022/10/30 06:33:44;;;;;;;;;;;11.10;99.90;;;;;;6147368;23;19927;-78
2022/10/30 06:36:13;;;;;;;;;;;11.10;99.90;;;;;;6148930;23;19944;-79
2022/10/30 06:38:40;;;;;;;;;;;11.20;99.90;;;;;;6126380;23;20346;-78
2022/10/30 06:41:12;;;;;;;;;;;11.40;99.90;;;;;;6114701;23;19921;-78
2022/10/30 06:43:45;;;;;;;;;;;11.70;99.90;;;;;;6128408;23;20283;-78
2022/10/30 06:46:19;;;;;;;;;;;12.00;99.90;;;;;;6133321;23;19971;-79
2022/10/30 06:48:47;;;;;;;;;;;12.00;99.90;;;;;;6153570;23;19956;-78
2022/10/30 06:51:20;;;;;;;;;;;12.00;99.90;;;;;;6089708;23;19947;-78
2022/10/30 06:53:48;;;;;;;;;;;12.00;99.90;;;;;;6136345;23;19921;-79
2022/10/30 06:56:19;;;;;;;;;;;11.80;99.90;;;;;;6124401;23;19991;-79
2022/10/30 06:58:50;;;;;;;;;;;11.80;99.90;;;;;;6138174;23;20002;-78
2022/10/30 07:01:20;;;;;;;;;;;11.80;99.90;;;;;;6152161;23;19994;-78
2022/10/30 07:03:55;;;;;;;;;;;11.80;99.90;;;;;;6089236;23;19927;-78
2022/10/30 07:06:25;;;;;;;;;;;11.70;99.90;;;;;;6118606;23;19947;-78
2022/10/30 07:08:53;;;;;;;;;;;11.80;99.90;;;;;;6147986;23;19921;-78
2022/10/30 07:11:21;;;;;;;;;;;11.90;99.90;;;;;;6144648;23;20336;-78
2022/10/30 07:13:52;;;;;;;;;;;11.90;99.90;;;;;;6147199;23;19924;-78
2022/10/30 07:16:23;;;;;;;;;;;12.00;99.90;;;;;;6154638;23;19927;-78
2022/10/30 07:18:56;;;;;;;;;;;12.20;99.90;;;;;;6137099;23;20399;-78
2022/10/30 07:21:33;;;;;;;;;;;12.30;99.90;;;;;;6153921;23;19920;-78
2022/10/30 07:24:03;;;;;;;;;;;12.50;99.90;;;;;;6150284;23;19990;-78
2022/10/30 07:26:36;;;;;;;;;;;12.70;99.90;;;;;;6128453;23;20304;-77
2022/10/30 07:29:23;;;;;;;;;;;12.90;99.90;;;;;;6129613;23;19920;-77
2022/10/30 07:32:03;;;;;;;;;;;13.10;99.90;;;;;;6152402;23;19927;-78
2022/10/30 07:34:33;;;;;;;;;;;13.30;99.90;;;;;;6147332;23;19920;-78
2022/10/30 07:37:01;;;;;;;;;;;13.50;96.20;;;;;;6126672;23;20029;-78
2022/10/30 07:39:33;;;;;;;;;;;13.90;91.10;;;;;;6128614;23;19927;-78
2022/10/30 07:42:03;;;;;;;;;;;14.20;86.30;;;;;;6127885;23;20449;-78
2022/10/30 07:44:31;;;;;;;;;;;14.60;82.90;;;;;;6137749;23;19992;-78
2022/10/30 07:46:57;;;;;;;;;;;14.80;83.10;;;;;;6127380;23;20096;-78
2022/10/30 07:49:24;;;;;;;;;;;15.10;83.10;;;;;;6150857;23;19925;-78
2022/10/30 07:51:51;;;;;;;;;;;15.30;80.70;;;;;;6127516;23;19952;-77
2022/10/30 07:54:17;;;;;;;;;;;15.60;74.80;;;;;;6127423;23;19940;-77
2022/10/30 07:56:44;;;;;;;;;;;15.80;74.20;;;;;;6152871;23;19924;-78
2022/10/30 07:59:11;;;;;;;;;;;15.90;74.80;;;;;;6153123;23;20000;-78
2022/10/30 08:01:37;;;;;;;;;;;16.00;71.60;;;;;;6140253;23;19946;-78
2022/10/30 08:04:04;;;;;;;;;;;16.20;71.30;;;;;;6152829;23;19959;-78
2022/10/30 08:06:31;;;;;;;;;;;16.40;67.50;;;;;;6152053;23;19927;-78
2022/10/30 08:08:57;;;;;;;;;;;16.60;68.10;;;;;;6152672;23;20000;-78
2022/10/30 08:11:24;;;;;;;;;;;16.70;65.10;;;;;;6151096;23;19920;-77
2022/10/30 08:13:51;;;;;;;;;;;16.80;64.10;;;;;;6151927;23;19996;-78
2022/10/30 08:16:18;;;;;;;;;;;16.90;64.40;;;;;;6152447;23;19959;-78
2022/10/30 08:18:44;;;;;;;;;;;17.10;62.20;;;;;;6151940;23;19995;-77
2022/10/30 08:21:11;;;;;;;;;;;17.30;61.30;;;;;;6151983;23;19948;-77
2022/10/30 08:23:38;;;;;;;;;;;17.50;60.00;;;;;;6150536;23;19943;-77
2022/10/30 08:26:05;;;;;;;;;;;17.60;59.90;;;;;;6152121;23;20003;-77
2022/10/30 08:28:32;;;;;;;;;;;17.70;58.90;;;;;;6150878;23;19959;-78
2022/10/30 08:30:59;;;;;;;;;;;17.80;60.40;;;;;;6152514;23;20243;-78
2022/10/30 08:33:27;;;;;;;;;;;17.90;59.20;;;;;;6152187;23;19924;-78
2022/10/30 08:35:58;;;;;;;;;;;18.00;58.60;;;;;;6152652;23;19951;-78
2022/10/30 08:38:25;;;;;;;;;;;18.00;59.30;;;;;;6151734;23;19948;-78
2022/10/30 08:40:52;;;;;;;;;;;18.00;59.60;;;;;;6152714;23;19988;-78
2022/10/30 08:43:19;;;;;;;;;;;18.00;58.80;;;;;;6151488;23;19920;-78
2022/10/30 08:45:46;;;;;;;;;;;18.10;59.40;;;;;;6153244;23;19971;-77
2022/10/30 08:48:14;;;;;;;;;;;18.20;61.50;;;;;;6152645;23;19971;-78
2022/10/30 08:50:40;;;;;;;;;;;18.30;61.00;;;;;;6151939;23;19920;-77
2022/10/30 08:53:09;;;;;;;;;;;18.50;59.30;;;;;;6151581;23;19987;-75
2022/10/30 08:55:36;;;;;;;;;;;18.60;61.70;;;;;;6152841;23;19951;-78
2022/10/30 08:58:03;;;;;;;;;;;18.70;58.10;;;;;;6152028;23;19999;-76
2022/10/30 09:00:30;;;;;;;;;;;18.80;57.40;;;;;;6152266;23;19972;-77
2022/10/30 09:02:59;;;;;;;;;;;18.90;56.30;;;;;;6153267;23;19995;-76
2022/10/30 09:05:27;;;;;;;;;;;19.00;57.20;;;;;;6152496;23;20230;-76
2022/10/30 09:07:54;;;;;;;;;;;19.10;58.00;;;;;;6152915;23;19992;-76
2022/10/30 09:10:22;;;;;;;;;;;19.20;59.10;;;;;;6152558;23;19980;-76
2022/10/30 09:12:53;;;;;;;;;;;19.20;59.20;;;;;;6153559;23;20261;-76
2022/10/30 09:15:19;;;;;;;;;;;19.30;60.80;;;;;;6153452;23;19960;-76
2022/10/30 09:17:46;;;;;;;;;;;19.40;63.30;;;;;;6153382;23;19920;-77
2022/10/30 09:20:13;;;;;;;;;;;19.40;63.00;;;;;;6154184;23;19952;-77
2022/10/30 09:22:40;;;;;;;;;;;19.40;61.70;;;;;;6154892;23;19920;-78
2022/10/30 09:25:07;;;;;;;;;;;19.50;60.70;;;;;;6154154;23;19944;-77
2022/10/30 09:27:37;;;;;;;;;;;19.70;59.90;;;;;;6153805;23;20003;-77
2022/10/30 09:30:04;;;;;;;;;;;19.90;57.80;;;;;;6153699;23;19959;-77
2022/10/30 09:32:34;;;;;;;;;;;20.20;57.30;;;;;;6153461;23;19991;-78
2022/10/30 09:35:01;;;;;;;;;;;20.40;54.30;;;;;;6154390;23;19921;-77
2022/10/30 09:37:28;;;;;;;;;;;20.60;52.80;;;;;;6153653;23;19921;-78
2022/10/30 09:39:55;;;;;;;;;;;20.80;50.80;;;;;;6154122;23;19983;-78
2022/10/30 09:42:42;;;;;;;;;;;20.90;50.10;;;;;;6153735;23;20261;-76
2022/10/30 09:45:18;;;;;;;;;;;21.00;49.60;;;;;;6153934;23;20065;-77
2022/10/30 09:48:16;;;;;;;;;;;21.10;51.70;;;;;;6152286;23;19925;-77
2022/10/30 09:50:54;;;;;;;;;;;21.20;50.70;;;;;;6154446;23;19999;-78
2022/10/30 09:53:29;;;;;;;;;;;21.20;50.10;;;;;;6153839;23;19972;-79
2022/10/30 09:56:06;;;;;;;;;;;21.30;50.40;;;;;;6154006;23;19940;-77
2022/10/30 09:58:32;;;;;;;;;;;21.40;50.40;;;;;;6153417;23;20019;-76
2022/10/30 10:01:19;;;;;;;;;;;21.50;49.20;;;;;;6153289;23;19925;-78
2022/10/30 10:03:58;;;;;;;;;;;21.70;50.70;;;;;;6140861;23;19924;-76
2022/10/30 10:06:25;;;;;;;;;;;21.90;49.30;;;;;;6152981;23;20262;-77
2022/10/30 10:09:03;;;;;;;;;;;22.00;49.40;;;;;;6153940;23;19921;-77
2022/10/30 10:11:39;;;;;;;;;;;22.10;49.30;;;;;;6152964;23;20342;-79
2022/10/30 10:14:32;;;;;;;;;;;22.20;49.30;;;;;;6153898;23;20393;-78
2022/10/30 10:17:00;;;;;;;;;;;22.30;48.60;;;;;;6148931;23;20253;-77
